Time;durP1;ratioP1;P1;durP2;ratioP2;P2;SDS_P1;SDS_P2;PMS_P1;PMS_P2;Temp;Humidity;BMP_temperature;BMP_pressure;BME280_temperature;BME280_humidity;BME280_pressure;Samples;Min_cycle;Max_cycle;Signal;HPM_P1;HPM_P2
2024/02/18 00:02:01;;;;;;;7.13;3.10;;;14.60;67.70;16.30;102912.00;;;;5036546;28;20284;-78
2024/02/18 00:04:29;;;;;;;5.38;2.58;;;14.60;67.70;16.20;102911.00;;;;5035403;28;20621;-78
2024/02/18 00:06:57;;;;;;;5.97;2.72;;;14.60;67.70;16.20;102905.00;;;;5032737;28;20235;-78
2024/02/18 00:09:25;;;;;;;3.80;2.70;;;14.60;67.70;16.20;102912.00;;;;5033430;28;20616;-78
2024/02/18 00:11:52;;;;;;;5.10;2.40;;;14.50;67.70;16.20;102901.00;;;;5040425;28;20613;-78
2024/02/18 00:14:19;;;;;;;4.22;2.13;;;14.60;67.70;16.20;102901.00;;;;5041461;28;20196;-78
2024/02/18 00:16:48;;;;;;;5.90;2.50;;;14.50;67.70;16.10;102904.00;;;;5033045;28;20204;-78
2024/02/18 00:19:15;;;;;;;6.20;3.22;;;14.50;67.70;16.10;102900.00;;;;5033080;28;20192;-78
2024/02/18 00:21:43;;;;;;;4.43;2.03;;;14.50;67.70;16.10;102900.00;;;;5037421;28;20288;-78
2024/02/18 00:24:12;;;;;;;3.72;2.00;;;14.50;67.70;16.10;102900.00;;;;5052793;28;20227;-78
2024/02/18 00:26:39;;;;;;;6.15;2.40;;;14.50;67.70;16.10;102895.00;;;;5040414;28;20224;-78
2024/02/18 00:29:08;;;;;;;5.60;2.75;;;14.40;67.60;16.10;102887.00;;;;5033328;28;20228;-79
2024/02/18 00:31:35;;;;;;;4.93;2.72;;;14.40;67.70;16.10;102883.00;;;;5035841;28;20287;-79
2024/02/18 00:34:02;;;;;;;4.88;2.38;;;14.40;67.70;16.00;102878.00;;;;5034245;28;20220;-78
2024/02/18 00:36:29;;;;;;;5.93;2.80;;;14.40;67.70;16.00;102875.00;;;;5033217;28;20232;-78
2024/02/18 00:38:57;;;;;;;4.45;2.13;;;14.40;67.80;16.00;102879.00;;;;5032789;28;20204;-79
2024/02/18 00:41:25;;;;;;;10.27;3.20;;;14.40;67.80;16.00;102879.00;;;;5033128;28;20200;-78
2024/02/18 00:43:52;;;;;;;4.68;2.30;;;14.40;67.80;16.00;102871.00;;;;5032081;28;20266;-78
2024/02/18 00:46:20;;;;;;;4.25;2.45;;;14.40;67.80;16.00;102864.00;;;;5035160;28;20279;-78
2024/02/18 00:48:47;;;;;;;15.80;2.83;;;14.30;67.80;16.00;102860.00;;;;5032183;28;20200;-78
2024/02/18 00:51:14;;;;;;;3.50;2.10;;;14.30;67.80;16.00;102861.00;;;;5033215;28;20192;-77
2024/02/18 00:53:41;;;;;;;3.80;2.13;;;14.40;67.90;16.00;102859.00;;;;5038410;28;20196;-78
2024/02/18 00:56:09;;;;;;;3.65;2.10;;;14.30;67.90;16.00;102863.00;;;;5046385;28;20715;-78
2024/02/18 00:58:38;;;;;;;6.30;2.60;;;14.30;67.90;16.00;102860.00;;;;5052796;28;20235;-79
2024/02/18 01:01:05;;;;;;;4.70;2.10;;;14.30;68.00;16.00;102859.00;;;;5052830;28;20195;-79
2024/02/18 01:03:32;;;;;;;2.97;2.22;;;14.30;68.00;16.00;102856.00;;;;5037678;28;20245;-78
2024/02/18 01:06:00;;;;;;;3.22;1.95;;;14.30;68.00;16.00;102860.00;;;;5032448;28;20587;-78
2024/02/18 01:08:27;;;;;;;2.80;2.20;;;14.30;68.00;16.00;102856.00;;;;5032443;28;20735;-78
2024/02/18 01:10:54;;;;;;;5.43;2.15;;;14.30;68.00;16.00;102855.00;;;;5042923;28;20685;-78
2024/02/18 01:13:21;;;;;;;3.53;2.13;;;14.30;68.00;16.00;102854.00;;;;5042463;28;20200;-78
2024/02/18 01:15:50;;;;;;;3.22;1.92;;;14.30;68.00;16.00;102856.00;;;;5052060;28;20204;-78
2024/02/18 01:18:17;;;;;;;3.45;2.15;;;14.40;68.10;16.00;102859.00;;;;5050603;28;20223;-78
2024/02/18 01:20:44;;;;;;;3.22;1.85;;;14.40;68.10;16.00;102852.00;;;;5033872;28;20208;-78
2024/02/18 01:23:12;;;;;;;12.63;2.35;;;14.40;68.10;16.10;102855.00;;;;5030845;28;20205;-78
2024/02/18 01:25:39;;;;;;;5.63;1.98;;;14.40;68.10;16.10;102847.00;;;;5036181;28;20278;-78
2024/02/18 01:28:07;;;;;;;3.47;1.90;;;14.40;68.10;16.10;102847.00;;;;5051813;28;20316;-78
2024/02/18 01:30:34;;;;;;;4.90;1.63;;;14.40;68.10;16.10;102844.00;;;;5051839;28;20723;-78
2024/02/18 01:33:03;;;;;;;5.68;1.73;;;14.40;68.10;16.10;102843.00;;;;5042697;28;20200;-78
2024/02/18 01:35:30;;;;;;;5.32;2.15;;;14.50;68.20;16.10;102845.00;;;;5032012;28;20636;-78
2024/02/18 01:37:57;;;;;;;3.08;2.15;;;14.40;68.10;16.10;102842.00;;;;5032626;28;20669;-78
2024/02/18 01:40:25;;;;;;;3.75;1.88;;;14.50;68.20;16.10;102840.00;;;;5032108;28;20251;-78
2024/02/18 01:42:52;;;;;;;7.05;2.03;;;14.50;68.20;16.10;102831.00;;;;5039123;28;20199;-78
2024/02/18 01:45:19;;;;;;;3.53;1.58;;;14.50;68.10;16.10;102841.00;;;;5036395;28;20279;-78
2024/02/18 01:47:47;;;;;;;2.72;1.98;;;14.50;68.10;16.10;102834.00;;;;5034751;28;20306;-78
2024/02/18 01:50:16;;;;;;;4.43;2.33;;;14.50;68.10;16.10;102830.00;;;;5031402;28;20334;-79
2024/02/18 01:52:47;;;;;;;6.78;2.70;;;14.60;68.20;16.10;102824.00;;;;5030803;28;20232;-78
2024/02/18 01:55:15;;;;;;;5.22;2.00;;;14.60;68.10;16.20;102823.00;;;;5031130;28;20236;-78
2024/02/18 01:57:44;;;;;;;2.28;1.70;;;14.60;68.10;16.20;102821.00;;;;5031571;28;20211;-78
2024/02/18 02:00:16;;;;;;;5.25;2.55;;;14.60;68.10;16.20;102826.00;;;;5031928;28;20283;-78
2024/02/18 02:02:48;;;;;;;6.75;2.67;;;14.60;68.10;16.20;102821.00;;;;5036983;28;20561;-78
2024/02/18 02:05:20;;;;;;;2.70;2.15;;;14.60;68.10;16.20;102812.00;;;;5049032;28;20196;-78
2024/02/18 02:07:49;;;;;;;2.70;1.80;;;14.60;68.10;16.30;102818.00;;;;5038517;28;20226;-78
2024/02/18 02:10:17;;;;;;;5.07;2.10;;;14.60;68.10;16.30;102812.00;;;;5041758;28;20625;-79
2024/02/18 02:12:46;;;;;;;3.38;1.90;;;14.70;68.20;16.30;102811.00;;;;5036430;28;20279;-78
2024/02/18 02:15:13;;;;;;;5.80;2.13;;;14.70;68.10;16.30;102811.00;;;;5038131;28;20596;-76
2024/02/18 02:17:41;;;;;;;4.55;1.80;;;14.70;68.10;16.40;102804.00;;;;5039444;28;20200;-76
2024/02/18 02:20:09;;;;;;;4.43;1.38;;;14.70;68.10;16.40;102807.00;;;;5031825;28;20242;-76
2024/02/18 02:22:38;;;;;;;4.55;1.70;;;14.70;68.10;16.40;102805.00;;;;5048142;28;20192;-76
2024/02/18 02:25:09;;;;;;;6.63;1.98;;;14.70;68.00;16.40;102801.00;;;;5046771;28;20199;-76
2024/02/18 02:27:40;;;;;;;2.65;1.80;;;14.80;68.10;16.40;102802.00;;;;5050175;28;20596;-77
2024/02/18 02:30:09;;;;;;;3.47;2.15;;;14.80;68.00;16.40;102791.00;;;;5051702;28;20192;-77
2024/02/18 02:32:36;;;;;;;3.75;1.73;;;14.80;67.90;16.40;102785.00;;;;5049115;28;20271;-77
2024/02/18 02:35:05;;;;;;;6.88;2.17;;;14.80;67.90;16.40;102781.00;;;;5048029;28;20628;-77
2024/02/18 02:37:33;;;;;;;4.50;1.60;;;14.80;67.80;16.40;102775.00;;;;5051002;28;20249;-77
2024/02/18 02:40:00;;;;;;;4.10;1.60;;;14.80;67.80;16.50;102771.00;;;;5050575;28;20207;-77
2024/02/18 02:42:27;;;;;;;3.50;1.55;;;14.80;67.80;16.50;102776.00;;;;5046252;28;20311;-77
2024/02/18 02:44:54;;;;;;;4.82;1.60;;;14.80;67.80;16.40;102770.00;;;;5040037;28;20286;-77
2024/02/18 02:47:23;;;;;;;3.83;1.70;;;14.80;67.70;16.50;102770.00;;;;5051242;28;20306;-77
2024/02/18 02:49:50;;;;;;;3.65;1.83;;;14.90;67.70;16.50;102765.00;;;;5049805;28;20294;-77
2024/02/18 02:52:17;;;;;;;4.13;1.20;;;14.80;67.70;16.50;102768.00;;;;5042894;28;20541;-77
2024/02/18 02:54:44;;;;;;;4.43;1.80;;;14.90;67.70;16.50;102760.00;;;;5042935;28;20851;-77
2024/02/18 02:57:11;;;;;;;4.07;1.77;;;14.90;67.60;16.50;102756.00;;;;5030728;28;20287;-77
2024/02/18 02:59:38;;;;;;;2.22;1.50;;;14.90;67.60;16.50;102756.00;;;;5031012;28;20204;-77
2024/02/18 03:02:07;;;;;;;3.03;1.55;;;14.90;67.60;16.50;102751.00;;;;5040312;28;20315;-76
2024/02/18 03:04:35;;;;;;;1.58;1.05;;;14.90;67.50;16.50;102754.00;;;;5035998;28;20262;-77
2024/02/18 03:07:02;;;;;;;4.10;1.50;;;14.90;67.50;16.50;102745.00;;;;5049717;28;20282;-77
2024/02/18 03:09:29;;;;;;;7.05;2.08;;;14.90;67.40;16.50;102749.00;;;;5051381;28;20200;-77
2024/02/18 03:11:57;;;;;;;3.40;1.90;;;14.90;67.40;16.50;102739.00;;;;5044407;28;20201;-77
2024/02/18 03:14:24;;;;;;;2.30;1.20;;;14.90;67.40;16.50;102735.00;;;;5032320;28;20243;-77
2024/02/18 03:16:51;;;;;;;3.15;1.40;;;14.90;67.40;16.50;102729.00;;;;5033458;28;20255;-76
2024/02/18 03:19:18;;;;;;;3.90;1.75;;;14.90;67.30;16.50;102729.00;;;;5034441;28;20200;-77
2024/02/18 03:21:47;;;;;;;7.40;1.55;;;14.90;67.30;16.50;102723.00;;;;5043240;28;20235;-78
2024/02/18 03:24:14;;;;;;;2.75;1.35;;;14.80;67.20;16.50;102719.00;;;;5051634;28;20279;-77
2024/02/18 03:26:41;;;;;;;4.18;1.50;;;14.90;67.30;16.40;102722.00;;;;5034365;28;20292;-78
2024/02/18 03:29:10;;;;;;;5.30;1.60;;;14.80;67.20;16.40;102719.00;;;;5034327;28;20235;-79
2024/02/18 03:31:37;;;;;;;4.15;1.60;;;14.80;67.20;16.40;102705.00;;;;5033607;28;20665;-77
2024/02/18 03:34:04;;;;;;;3.20;1.67;;;14.80;67.20;16.40;102709.00;;;;5052342;28;20199;-77
2024/02/18 03:36:31;;;;;;;3.47;1.38;;;14.80;67.20;16.40;102699.00;;;;5040366;28;20223;-77
2024/02/18 03:39:00;;;;;;;5.40;1.50;;;14.80;67.20;16.40;102707.00;;;;5034423;28;20204;-76
2024/02/18 03:41:27;;;;;;;3.72;1.35;;;14.80;67.20;16.40;102694.00;;;;5049271;28;20639;-77
2024/02/18 03:43:54;;;;;;;3.22;1.63;;;14.80;67.20;16.30;102694.00;;;;5039832;28;20246;-76
2024/02/18 03:46:22;;;;;;;4.57;1.50;;;14.80;67.30;16.30;102695.00;;;;5034456;28;20299;-76
2024/02/18 03:48:49;;;;;;;4.32;2.05;;;14.70;67.20;16.30;102691.00;;;;5033261;28;20919;-75
2024/02/18 03:51:16;;;;;;;3.67;1.42;;;14.70;67.30;16.30;102683.00;;;;5033047;28;20279;-76
2024/02/18 03:53:43;;;;;;;4.78;1.50;;;14.70;67.30;16.30;102684.00;;;;5050093;28;20345;-76
2024/02/18 03:56:11;;;;;;;4.75;1.60;;;14.70;67.30;16.20;102673.00;;;;5053168;28;20227;-76
2024/02/18 03:58:38;;;;;;;4.90;1.80;;;14.70;67.40;16.20;102671.00;;;;5047370;28;20207;-75
2024/02/18 04:01:05;;;;;;;2.38;1.30;;;14.70;67.40;16.20;102664.00;;;;5033071;28;20281;-76
2024/02/18 04:03:32;;;;;;;3.67;1.92;;;14.70;67.40;16.20;102661.00;;;;5032295;28;20254;-75
2024/02/18 04:05:59;;;;;;;3.53;1.35;;;14.60;67.40;16.20;102657.00;;;;5033128;28;20199;-75
2024/02/18 04:08:27;;;;;;;3.83;1.50;;;14.60;67.50;16.20;102656.00;;;;5033317;28;20307;-75
2024/02/18 04:10:54;;;;;;;4.25;1.42;;;14.60;67.50;16.20;102653.00;;;;5033750;28;20209;-76
2024/02/18 04:13:22;;;;;;;2.53;1.50;;;14.60;67.50;16.20;102645.00;;;;5032951;28;20222;-75
2024/02/18 04:15:49;;;;;;;3.63;1.38;;;14.60;67.60;16.20;102633.00;;;;5047244;28;20195;-75
2024/02/18 04:18:18;;;;;;;4.47;1.52;;;14.60;67.60;16.10;102628.00;;;;5053725;28;20239;-75
2024/02/18 04:20:45;;;;;;;2.63;1.42;;;14.60;67.70;16.10;102623.00;;;;5046316;28;20199;-75
2024/02/18 04:23:12;;;;;;;3.38;1.50;;;14.60;67.70;16.10;102618.00;;;;5052576;28;20204;-75
2024/02/18 04:25:39;;;;;;;3.50;1.20;;;14.50;67.70;16.10;102617.00;;;;5051703;28;20649;-75
2024/02/18 04:28:07;;;;;;;3.35;1.77;;;14.50;67.70;16.10;102606.00;;;;5032957;28;20312;-75
2024/02/18 04:30:35;;;;;;;5.25;1.67;;;14.50;67.70;16.10;102598.00;;;;5036222;28;20203;-75
2024/02/18 04:33:03;;;;;;;3.17;1.70;;;14.50;67.70;16.10;102600.00;;;;5044429;28;20208;-75
2024/02/18 04:35:30;;;;;;;2.47;1.20;;;14.50;67.70;16.00;102592.00;;;;5033078;28;20209;-75
2024/02/18 04:37:57;;;;;;;2.50;1.08;;;14.40;67.70;16.00;102591.00;;;;5036290;28;20306;-74
2024/02/18 04:40:25;;;;;;;2.45;1.45;;;14.50;67.90;16.00;102586.00;;;;5043818;28;20283;-76
2024/02/18 04:42:52;;;;;;;4.50;1.73;;;14.40;67.80;16.00;102583.00;;;;5035299;28;20195;-75
2024/02/18 04:45:19;;;;;;;5.93;2.03;;;14.40;67.80;15.90;102578.00;;;;5037820;28;20279;-75
2024/02/18 04:47:48;;;;;;;2.35;1.08;;;14.40;67.80;15.90;102578.00;;;;5036368;28;20310;-75
2024/02/18 04:50:15;;;;;;;4.18;2.15;;;14.40;67.90;15.90;102577.00;;;;5051823;28;20286;-75
2024/02/18 04:52:42;;;;;;;3.05;1.60;;;14.30;67.90;15.90;102563.00;;;;5047666;28;20296;-75
2024/02/18 04:55:10;;;;;;;2.67;1.52;;;14.30;67.90;15.90;102562.00;;;;5032315;28;20288;-74
2024/02/18 04:57:37;;;;;;;2.97;1.60;;;14.30;68.00;15.80;102562.00;;;;5032398;28;20291;-74
2024/02/18 05:00:06;;;;;;;4.13;1.58;;;14.30;68.70;15.80;102556.00;;;;5032657;28;20657;-75
2024/02/18 05:02:33;;;;;;;4.63;1.60;;;14.30;68.00;15.80;102547.00;;;;5043479;28;20199;-75
2024/02/18 05:05:02;;;;;;;5.05;1.60;;;14.20;68.00;15.80;102554.00;;;;5051526;28;20290;-75
2024/02/18 05:07:29;;;;;;;5.30;1.55;;;14.30;68.10;15.80;102541.00;;;;5035503;28;20642;-75
2024/02/18 05:09:56;;;;;;;3.45;1.58;;;14.20;68.00;15.80;102538.00;;;;5036366;28;20282;-74
2024/02/18 05:12:23;;;;;;;2.80;1.15;;;14.30;68.00;15.80;102535.00;;;;5045995;28;20284;-74
2024/02/18 05:14:50;;;;;;;2.97;1.55;;;14.20;68.00;15.80;102526.00;;;;5032091;28;20284;-75
2024/02/18 05:17:17;;;;;;;3.55;1.48;;;14.20;68.00;15.80;102533.00;;;;5047388;28;20199;-75
2024/02/18 05:19:45;;;;;;;4.32;1.88;;;14.30;68.00;15.80;102520.00;;;;5050786;28;20574;-75
2024/02/18 05:22:14;;;;;;;9.05;1.98;;;14.20;67.90;15.80;102524.00;;;;5046920;28;20643;-76
2024/02/18 05:24:41;;;;;;;5.55;1.48;;;14.20;67.90;15.80;102527.00;;;;5031841;28;20196;-76
2024/02/18 05:27:08;;;;;;;4.90;1.73;;;14.20;67.90;15.80;102515.00;;;;5031354;28;20200;-75
2024/02/18 05:29:36;;;;;;;6.38;1.63;;;14.20;67.90;15.80;102519.00;;;;5032423;28;20314;-75
2024/02/18 05:32:03;;;;;;;7.10;1.80;;;14.20;67.90;15.80;102512.00;;;;5032641;28;20291;-75
2024/02/18 05:34:30;;;;;;;4.93;1.20;;;14.20;67.80;15.80;102513.00;;;;5048582;28;20282;-75
2024/02/18 05:36:57;;;;;;;2.50;1.52;;;14.20;67.80;15.80;102514.00;;;;5051337;28;20294;-75
2024/02/18 05:39:26;;;;;;;3.90;1.30;;;14.20;67.80;15.80;102516.00;;;;5050411;28;20199;-75
2024/02/18 05:41:53;;;;;;;5.45;1.50;;;14.20;67.80;15.80;102509.00;;;;5030989;28;20688;-75
2024/02/18 05:44:20;;;;;;;5.72;1.48;;;14.20;67.80;15.80;102509.00;;;;5031504;28;20196;-75
2024/02/18 05:46:47;;;;;;;3.20;1.63;;;14.20;67.80;15.80;102504.00;;;;5031632;28;20204;-75
2024/02/18 05:49:14;;;;;;;3.78;1.40;;;14.30;67.90;15.80;102499.00;;;;5031456;28;20326;-75
2024/02/18 05:51:41;;;;;;;2.75;1.15;;;14.20;67.80;15.80;102491.00;;;;5039745;28;20210;-75
2024/02/18 05:54:08;;;;;;;2.53;1.50;;;14.30;67.90;15.80;102492.00;;;;5031248;28;20364;-75
2024/02/18 05:56:36;;;;;;;2.83;1.40;;;14.30;67.90;15.80;102480.00;;;;5035455;28;20678;-75
2024/02/18 05:59:05;;;;;;;3.30;1.65;;;14.30;67.90;15.80;102470.00;;;;5036668;28;20219;-75
2024/02/18 06:01:32;;;;;;;4.32;1.42;;;14.20;67.80;15.80;102471.00;;;;5031689;28;20287;-75
2024/02/18 06:03:59;;;;;;;2.63;1.30;;;14.30;67.90;15.80;102467.00;;;;5039652;28;20378;-74
2024/02/18 06:06:26;;;;;;;4.57;1.50;;;14.30;67.90;15.80;102466.00;;;;5050530;28;20641;-74
2024/02/18 06:08:53;;;;;;;4.35;1.33;;;14.20;67.80;15.80;102461.00;;;;5049756;28;20329;-74
2024/02/18 06:11:20;;;;;;;4.78;1.40;;;14.30;67.80;15.80;102460.00;;;;5033738;28;20247;-74
2024/02/18 06:13:49;;;;;;;3.22;1.40;;;14.20;67.70;15.70;102454.00;;;;5040668;28;20235;-75
2024/02/18 06:16:16;;;;;;;4.53;2.13;;;14.20;67.80;15.70;102442.00;;;;5049084;28;20661;-74
2024/02/18 06:18:44;;;;;;;3.30;1.63;;;14.20;67.80;15.70;102441.00;;;;5049743;28;20294;-74
2024/02/18 06:21:20;;;;;;;4.82;1.67;;;14.20;67.80;15.60;102421.00;;;;5035059;28;20287;-74
2024/02/18 06:23:48;;;;;;;7.25;1.30;;;14.20;67.80;15.70;102431.00;;;;5048298;28;20206;-74
2024/02/18 06:26:16;;;;;;;3.28;1.25;;;14.20;67.90;15.70;102426.00;;;;5047491;28;21035;-75
2024/02/18 06:28:44;;;;;;;4.18;1.73;;;14.20;67.90;15.70;102416.00;;;;5033590;28;20220;-74
2024/02/18 06:31:13;;;;;;;2.58;1.60;;;14.10;67.90;15.60;102425.00;;;;5036885;28;20599;-74
2024/02/18 06:33:44;;;;;;;4.25;1.65;;;14.10;67.90;15.60;102426.00;;;;5035634;28;20212;-73
2024/02/18 06:36:12;;;;;;;2.63;1.50;;;14.10;67.90;15.60;102421.00;;;;5039775;28;20198;-74
2024/02/18 06:38:42;;;;;;;3.97;1.50;;;14.10;67.90;15.60;102422.00;;;;5036519;28;20282;-74
2024/02/18 06:41:10;;;;;;;2.72;1.30;;;14.10;68.00;15.60;102420.00;;;;5039494;28;20188;-74
2024/02/18 06:43:38;;;;;;;4.28;1.83;;;14.10;68.00;15.60;102421.00;;;;5036015;28;20312;-74
2024/02/18 06:46:05;;;;;;;4.18;1.60;;;14.10;68.00;15.60;102415.00;;;;5036418;28;20291;-74
2024/02/18 06:48:34;;;;;;;2.92;1.60;;;14.10;68.70;15.60;102412.00;;;;5043065;28;20223;-74
2024/02/18 06:51:04;;;;;;;6.35;1.50;;;14.00;68.10;15.50;102418.00;;;;5039431;28;20299;-75
2024/02/18 06:53:32;;;;;;;5.20;1.70;;;14.00;68.10;15.60;102410.00;;;;5039678;28;20201;-75
2024/02/18 06:55:59;;;;;;;4.15;1.30;;;14.00;68.10;15.50;102409.00;;;;5038800;28;20314;-75
2024/02/18 06:58:26;;;;;;;15.05;2.00;;;14.00;68.10;15.50;102411.00;;;;5043078;28;20279;-75
2024/02/18 07:00:53;;;;;;;2.67;1.90;;;14.00;68.10;15.50;102400.00;;;;5044447;28;20275;-75
2024/02/18 07:03:23;;;;;;;3.90;1.50;;;14.00;68.10;15.50;102397.00;;;;5034633;28;20383;-76
2024/02/18 07:05:51;;;;;;;4.75;1.48;;;14.00;68.10;15.50;102394.00;;;;5038737;28;20631;-75
2024/02/18 07:08:22;;;;;;;1.92;1.40;;;14.00;68.30;15.50;102385.00;;;;5037808;28;20196;-75
2024/02/18 07:10:52;;;;;;;2.60;1.35;;;14.00;68.30;15.50;102390.00;;;;5038930;28;20573;-75
2024/02/18 07:13:19;;;;;;;1.52;0.88;;;13.90;68.20;15.50;102396.00;;;;5039312;28;20284;-75
2024/02/18 07:15:48;;;;;;;3.40;1.85;;;13.90;68.30;15.50;102388.00;;;;5041375;28;20200;-76
2024/02/18 07:18:20;;;;;;;4.40;1.55;;;13.90;68.30;15.50;102387.00;;;;5043245;28;20220;-75
2024/02/18 07:20:48;;;;;;;5.57;1.17;;;13.90;68.30;15.50;102378.00;;;;5039247;28;20891;-76
2024/02/18 07:23:18;;;;;;;3.25;1.30;;;13.90;68.40;15.40;102386.00;;;;5037232;28;20192;-76
2024/02/18 07:25:45;;;;;;;4.45;1.52;;;13.90;68.40;15.50;102378.00;;;;5043324;28;20608;-76
2024/02/18 07:28:15;;;;;;;3.28;1.08;;;13.90;68.50;15.50;102370.00;;;;5038660;28;20193;-75
2024/02/18 07:30:42;;;;;;;3.97;1.40;;;13.90;68.60;15.50;102362.00;;;;5039983;28;20191;-76
2024/02/18 07:33:11;;;;;;;3.40;1.40;;;13.90;68.60;15.50;102358.00;;;;5038957;28;20192;-76
2024/02/18 07:35:40;;;;;;;3.80;1.95;;;13.90;68.60;15.50;102360.00;;;;5041296;28;20191;-75
2024/02/18 07:38:08;;;;;;;3.80;1.20;;;13.90;68.60;15.50;102353.00;;;;5041040;28;20196;-75
2024/02/18 07:40:37;;;;;;;2.67;1.15;;;13.90;68.60;15.50;102355.00;;;;5037647;28;20261;-75
2024/02/18 07:43:05;;;;;;;5.32;1.70;;;13.90;68.60;15.50;102362.00;;;;5044191;28;20196;-76
2024/02/18 07:45:34;;;;;;;5.70;1.70;;;13.90;68.60;15.50;102351.00;;;;5046625;28;20200;-77
2024/02/18 07:48:04;;;;;;;7.78;2.25;;;13.90;68.70;15.40;102353.00;;;;5044492;28;20201;-75
2024/02/18 07:50:36;;;;;;;4.43;1.65;;;13.90;68.60;15.40;102346.00;;;;5040846;28;20278;-76
2024/02/18 07:53:03;;;;;;;3.78;1.80;;;13.90;68.60;15.40;102346.00;;;;5045777;28;20706;-75
2024/02/18 07:55:31;;;;;;;3.22;1.50;;;13.80;68.50;15.40;102349.00;;;;5036424;28;20235;-76
2024/02/18 07:58:02;;;;;;;4.43;1.67;;;13.80;68.60;15.40;102345.00;;;;5037541;28;20195;-75
2024/02/18 08:00:30;;;;;;;8.63;1.40;;;13.80;68.70;15.40;102339.00;;;;5034073;28;20198;-75
2024/02/18 08:02:58;;;;;;;4.70;1.27;;;13.80;68.70;15.40;102335.00;;;;5037417;28;20224;-77
2024/02/18 08:05:27;;;;;;;4.10;1.55;;;13.80;68.60;15.40;102336.00;;;;5042217;28;20220;-76
2024/02/18 08:07:54;;;;;;;4.47;1.83;;;13.80;68.70;15.40;102333.00;;;;5038722;28;20194;-78
2024/02/18 08:10:23;;;;;;;3.72;1.40;;;13.80;68.70;15.40;102330.00;;;;5035425;28;20215;-77
2024/02/18 08:12:51;;;;;;;2.40;1.17;;;13.80;68.70;15.40;102324.00;;;;5039100;28;20230;-76
2024/02/18 08:15:33;;;;;;;6.80;1.90;;;13.80;68.70;15.40;102318.00;;;;5038071;28;20282;-76
2024/02/18 08:18:01;;;;;;;5.25;1.15;;;13.80;68.70;15.40;102322.00;;;;5041641;28;20204;-76
2024/02/18 08:20:28;;;;;;;3.47;1.33;;;13.80;68.70;15.40;102332.00;;;;5038987;28;20705;-76
2024/02/18 08:22:55;;;;;;;5.70;1.52;;;13.80;68.80;15.40;102332.00;;;;5041960;28;20287;-75
2024/02/18 08:25:22;;;;;;;3.15;1.10;;;13.80;68.90;15.30;102322.00;;;;5038087;28;20203;-76
2024/02/18 08:27:50;;;;;;;4.10;1.83;;;13.70;68.90;15.40;102322.00;;;;5043647;28;20204;-76
2024/02/18 08:30:17;;;;;;;2.90;1.23;;;13.80;69.00;15.40;102317.00;;;;5045104;28;20222;-75
2024/02/18 08:32:45;;;;;;;6.13;1.70;;;13.70;69.00;15.30;102317.00;;;;5046581;28;20275;-75
2024/02/18 08:35:13;;;;;;;5.20;1.65;;;13.70;69.00;15.40;102318.00;;;;5038258;28;20191;-76
2024/02/18 08:37:40;;;;;;;3.25;1.25;;;13.70;69.00;15.40;102321.00;;;;5039415;28;20198;-74
2024/02/18 08:40:12;;;;;;;3.13;1.73;;;13.80;69.10;15.30;102314.00;;;;5033862;28;20259;-75
2024/02/18 08:42:39;;;;;;;2.88;1.30;;;13.70;69.10;15.30;102312.00;;;;5033931;28;20749;-75
2024/02/18 08:45:08;;;;;;;3.53;1.30;;;13.70;69.10;15.40;102312.00;;;;5032297;28;20666;-75
2024/02/18 08:47:35;;;;;;;4.68;1.55;;;13.70;69.20;15.40;102307.00;;;;5036066;28;20224;-75
2024/02/18 08:50:04;;;;;;;5.28;1.67;;;13.70;69.20;15.30;102301.00;;;;5032770;28;20784;-76
2024/02/18 08:52:31;;;;;;;6.53;1.77;;;13.70;69.20;15.40;102299.00;;;;5033929;28;20283;-74
2024/02/18 08:54:58;;;;;;;2.53;1.35;;;13.70;69.20;15.30;102288.00;;;;5032754;28;20320;-76
2024/02/18 08:57:25;;;;;;;5.85;1.63;;;13.70;69.20;15.30;102289.00;;;;5041008;28;20326;-75
2024/02/18 08:59:52;;;;;;;1.55;1.40;;;13.70;69.20;15.30;102270.00;;;;5032669;28;20295;-75
2024/02/18 09:02:20;;;;;;;2.08;1.23;;;13.70;69.30;15.30;102272.00;;;;5032259;28;20283;-75
2024/02/18 09:04:47;;;;;;;1.58;1.17;;;13.70;69.30;15.30;102268.00;;;;5032213;28;20192;-75
2024/02/18 09:07:15;;;;;;;3.13;1.60;;;13.70;69.40;15.30;102281.00;;;;5032411;28;20207;-75
2024/02/18 09:09:42;;;;;;;4.00;1.42;;;13.70;69.40;15.30;102274.00;;;;5032614;28;20722;-76
2024/02/18 09:12:10;;;;;;;3.70;1.42;;;13.70;69.40;15.30;102269.00;;;;5031846;28;20220;-75
2024/02/18 09:14:37;;;;;;;4.45;1.42;;;13.70;69.40;15.40;102268.00;;;;5033350;28;20207;-75
2024/02/18 09:17:05;;;;;;;4.20;1.40;;;13.70;69.50;15.40;102266.00;;;;5036918;28;20286;-75
2024/02/18 09:19:32;;;;;;;5.88;1.42;;;13.70;69.50;15.30;102264.00;;;;5040588;28;20231;-75
2024/02/18 09:21:59;;;;;;;2.83;1.40;;;13.70;69.40;15.40;102256.00;;;;5041633;28;20290;-75
2024/02/18 09:24:27;;;;;;;8.77;2.35;;;13.70;69.40;15.40;102248.00;;;;5035772;28;20283;-75
2024/02/18 09:26:54;;;;;;;4.70;1.58;;;13.70;69.50;15.40;102258.00;;;;5034454;28;20283;-76
2024/02/18 09:29:22;;;;;;;3.65;1.75;;;13.70;69.60;15.40;102242.00;;;;5031669;28;20224;-75
2024/02/18 09:31:49;;;;;;;5.22;1.30;;;13.70;69.60;15.40;102238.00;;;;5032572;28;20295;-75
2024/02/18 09:34:18;;;;;;;3.45;1.48;;;13.80;69.60;15.40;102238.00;;;;5031053;28;20279;-75
2024/02/18 09:36:45;;;;;;;2.30;1.58;;;13.80;70.30;15.40;102222.00;;;;5032211;28;20207;-76
2024/02/18 09:39:12;;;;;;;2.97;1.50;;;13.80;69.50;15.40;102228.00;;;;5032379;28;20287;-75
2024/02/18 09:41:46;;;;;;;3.97;1.70;;;13.80;69.50;15.40;102227.00;;;;5039613;28;20610;-75
2024/02/18 09:44:17;;;;;;;4.53;1.80;;;13.80;69.50;15.40;102212.00;;;;5035649;28;20223;-75
2024/02/18 09:46:46;;;;;;;3.70;1.85;;;13.80;69.40;15.40;102207.00;;;;5038948;28;20196;-74
2024/02/18 09:49:16;;;;;;;4.22;1.63;;;13.80;69.30;15.40;102209.00;;;;5032069;28;20196;-76
2024/02/18 09:51:43;;;;;;;3.67;1.90;;;13.80;69.30;15.40;102202.00;;;;5048636;28;20203;-74
2024/02/18 09:54:12;;;;;;;2.75;1.77;;;13.80;69.30;15.40;102195.00;;;;5050771;28;20194;-74
2024/02/18 09:56:40;;;;;;;3.95;2.10;;;13.80;69.40;15.40;102191.00;;;;5031665;28;20319;-75
2024/02/18 09:59:08;;;;;;;5.10;1.60;;;13.80;69.40;15.40;102188.00;;;;5031862;28;20287;-75
2024/02/18 10:01:38;;;;;;;4.55;1.48;;;13.80;69.50;15.40;102183.00;;;;5034173;28;20680;-75
2024/02/18 10:04:05;;;;;;;2.97;1.83;;;13.80;69.40;15.40;102170.00;;;;5042868;28;20211;-74
2024/02/18 10:06:32;;;;;;;5.82;2.50;;;13.80;69.40;15.40;102173.00;;;;5039424;28;20741;-75
2024/02/18 10:09:01;;;;;;;3.53;1.55;;;13.80;69.50;15.40;102174.00;;;;5031421;28;20200;-74
2024/02/18 10:11:31;;;;;;;6.18;2.00;;;13.80;69.50;15.40;102171.00;;;;5031182;28;20220;-74
2024/02/18 10:14:00;;;;;;;3.15;1.65;;;13.80;69.50;15.40;102162.00;;;;5031911;28;20715;-75
2024/02/18 10:16:27;;;;;;;3.65;1.67;;;13.80;69.40;15.40;102152.00;;;;5031256;28;20275;-75
2024/02/18 10:18:55;;;;;;;5.95;1.85;;;13.80;69.50;15.40;102146.00;;;;5032686;28;20196;-74
2024/02/18 10:21:25;;;;;;;4.57;1.80;;;13.80;69.50;15.40;102140.00;;;;5042773;28;20705;-74
2024/02/18 10:23:53;;;;;;;3.67;1.70;;;13.80;69.50;15.40;102149.00;;;;5041872;28;20212;-76
2024/02/18 10:26:21;;;;;;;3.97;1.60;;;13.80;69.50;15.40;102137.00;;;;5039412;28;20253;-75
2024/02/18 10:28:48;;;;;;;3.10;1.55;;;13.80;69.40;15.40;102148.00;;;;5040607;28;20196;-75
2024/02/18 10:31:17;;;;;;;4.13;2.35;;;13.80;69.40;15.40;102142.00;;;;5048350;28;20223;-76
2024/02/18 10:33:44;;;;;;;2.42;1.58;;;13.80;69.50;15.40;102140.00;;;;5046402;28;20224;-75
2024/02/18 10:36:13;;;;;;;3.17;1.70;;;13.80;69.40;15.40;102134.00;;;;5038301;28;20192;-75
2024/02/18 10:38:45;;;;;;;2.38;1.70;;;13.80;69.30;15.30;102130.00;;;;5038289;28;20275;-76
2024/02/18 10:41:18;;;;;;;2.88;1.48;;;13.70;69.30;15.30;102134.00;;;;5038158;28;20783;-75
2024/02/18 10:43:50;;;;;;;3.25;1.77;;;13.80;69.30;15.40;102136.00;;;;5042769;28;20282;-76
2024/02/18 10:46:21;;;;;;;6.43;2.13;;;13.70;69.30;15.40;102132.00;;;;5050121;28;20617;-75
2024/02/18 10:48:53;;;;;;;3.60;1.40;;;13.80;69.40;15.40;102125.00;;;;5039743;28;20294;-77
2024/02/18 10:51:27;;;;;;;5.65;2.00;;;13.80;69.30;15.30;102122.00;;;;5044979;28;20650;-75